Charles Town, WV (25414)

04:35 PM EDT die 28o August, anno 2016 (GMT -0400)
Vinton Farm | | Change Station

Elev 522 ft 39.27 °N, 77.86 °W | Updated 30 seconds ago

Clear
Serena
90.1 °F
Feels Like 95 °F
N
0.0
Ventus Variabilis Ventus from Auster
Gusts 0.0 mph

Hodie
High -- | Low -- °F
--% Chance of Precip.
Yesterday
High -- | Low -- °F
Precip. -- in
Pressio 30.17 in
Visibilitas 10.0 milia passuum
Clouds Serena
Index Caloris 95 °F
Frigus in quo Ros apparet 69 °F
Umor 50%
Rainfall 0.00 in
Snow Depth Not available.
6:36 AM 7:47 PM
Waning Crescent, 13% visible
METAR KMRB 281953Z 15007KT 10SM CLR 31/18 A3018 RMK AO2 SLP215 T03060178
Pressio 30.17 in
Visibilitas 10.0 milia passuum
Clouds Serena
Index Caloris 95 °F
Frigus in quo Ros apparet 69 °F
Umor 50%
Rainfall 0.00 in
Snow Depth Not available.
6:36 AM 7:47 PM
Waning Crescent, 13% visible
METAR KMRB 281953Z 15007KT 10SM CLR 31/18 A3018 RMK AO2 SLP215 T03060178

10-Day Weather Forecast

Almanac

Astronomy

Aug. 28, 2016 Rise Set
Actual Time
Civil Twilight
Nautical Twilight
Astronomical Twilight
Moon
Length Of Visible Light
Length of Day
Tomorrow will be .
, % of the Moon is Illuminated

Today's Extremes

State Highs State Lows

Community

WunderPhotos

Upload Photos

1,935,691 photos uploaded!

WunderBlog® & News

Nearby

Air Quality

  Air Quality AQ Index Pollutant
Not available.

Snow Depth

Station Depth Elevation

Earthquake Activity

City Distance Mag. Time & Date
Minimum magnitude displayed is 2.5.

Coastal Water Temperatures

Locus Calor

Stations

Nearby Weather Stations

Station Location Temp Frigus Venti Frigus in quo Ros apparet Umor Ventus Precip. Elev Renovata Type
                   

Watches & Warnings

There are currently no watches in effect.